Montreal, Quebec

7:46 AM EDT on October 24, 2014 (GMT -0400)
Montreal | Change Station
CLOSE
Current Station
Airport
Location: Montreal,
Elevation: 118 ft
Nearby Weather Stations

Elev 118 ft 45.47 °N, 73.74 °W | Updated 46 minutes ago

Light Rain
Light Rain
45 °F
Feels Like 41 °F
N
6
Wind Variable Wind from WNW

Today is forecast to be nearly the same temperature as yesterday.

Today
High -- | Low -- °F
--% Chance of Precip.
Yesterday
High -- | Low -- °F
Precip. -- in
7:23 AM 5:54 PM
New Moon, 0% visible
Pressure 29.91 in
Visibility 15.0 miles
Clouds Mostly Cloudy 3500 ft
Overcast 10000 ft
Windchill 41 °F
Dew Point 43 °F
Humidity 93%
Rainfall 0.00 in
Snow Depth Not available.
UV 0 out of 12
Pollen Not available.
Air Quality Not available.
Flu Activity Not available.
METAR CYUL 241100Z 30005KT 15SM -RA BKN035 OVC100 07/06 A2991 RMK SC5AC3 SLP128

More Conditions Fewer Conditions

Pressure 29.91 in
Visibility 15.0 miles
Clouds Mostly Cloudy 3500 ft
Overcast 10000 ft
Windchill 41 °F
Dew Point 43 °F
Humidity 93%
Rainfall 0.00 in
Snow Depth Not available.
UV 0 out of 12
Pollen Not available.
Air Quality Not available.
Flu Activity Not available.
METAR CYUL 241100Z 30005KT 15SM -RA BKN035 OVC100 07/06 A2991 RMK SC5AC3 SLP128

More Conditions Fewer Conditions

10-Day Weather Forecast

Almanac

Astronomy

Oct. 24, 2014 Rise Set
Actual Time 7:23 AM EDT 5:54 PM EDT
Civil Twilight 6:52 AM EDT 6:24 PM EDT
Nautical Twilight 6:18 AM EDT 6:59 PM EDT
Astronomical Twilight 5:44 AM EDT 7:33 PM EDT
Moon 8:01 AM EDT 6:30 PM EDT
Length of Visible Light 11h 31m
Length of Day
10h 31m
Tomorrow will be 2m 58s shorter.
New Moon, 0% of the Moon is Illuminated
Today
New Moon
Oct 30
First Quarter
Nov 6
Full
Nov 14
Last Quarter
Nov 22
New

Yesterday's Extremes

Country Highs Country Lows

Community

WunderPhotos

Upload Photos

1,764,526 photos uploaded!

Nearby

Snow Depth

Not available.

Earthquake Activity

City Distance Mag. Time & Date
No recent earthquake activity has been reported nearby.
Minimum magnitude displayed is 2.5.

Coastal Water Temperatures

Place Temperature
No Stations Reporting

Nearby Weather Stations